Time;durP1;ratioP1;P1;durP2;ratioP2;P2;SDS_P1;SDS_P2;PMS_P1;PMS_P2;Temp;Humidity;BMP_temperature;BMP_pressure;BME280_temperature;BME280_humidity;BME280_pressure;Samples;Min_cycle;Max_cycle;Signal;HPM_P1;HPM_P2
2021/01/01 00:02:00;;;;;;;265.13;242.07;;;3.00;99.90;;;;;;6256910;23;20749;-87
2021/01/01 00:04:27;;;;;;;273.07;249.37;;;3.00;99.90;;;;;;6257884;23;20407;-86
2021/01/01 00:06:54;;;;;;;272.83;249.27;;;2.90;99.90;;;;;;6257360;23;20460;-86
2021/01/01 00:09:23;;;;;;;289.00;262.13;;;3.10;99.90;;;;;;6247247;23;20882;-86
2021/01/01 00:12:05;;;;;;;271.77;247.77;;;3.10;99.90;;;;;;6247228;23;20403;-86
2021/01/01 00:14:31;;;;;;;275.20;249.93;;;3.00;99.90;;;;;;6246312;23;20724;-86
2021/01/01 00:17:01;;;;;;;259.47;236.77;;;3.10;99.90;;;;;;6257110;23;20411;-86
2021/01/01 00:19:31;;;;;;;288.77;261.80;;;3.10;99.90;;;;;;6257249;23;20415;-86
2021/01/01 00:22:01;;;;;;;289.00;257.43;;;3.10;99.90;;;;;;6247247;23;20427;-86
2021/01/01 00:24:27;;;;;;;292.10;262.00;;;3.20;99.90;;;;;;6257264;23;20408;-87
2021/01/01 00:26:54;;;;;;;282.87;254.27;;;3.10;99.90;;;;;;6257365;22;20439;-87
2021/01/01 00:29:22;;;;;;;284.87;254.67;;;3.00;99.90;;;;;;6245977;23;20391;-85
2021/01/01 00:31:48;;;;;;;283.00;254.07;;;3.10;99.90;;;;;;6247262;23;20780;-84
2021/01/01 00:34:15;;;;;;;280.47;250.77;;;3.00;99.90;;;;;;6257200;23;20415;-86
2021/01/01 00:36:41;;;;;;;260.70;235.97;;;3.00;99.90;;;;;;6257412;23;20775;-85
2021/01/01 00:39:13;;;;;;;240.37;219.37;;;3.00;99.90;;;;;;6246706;23;20407;-87
2021/01/01 00:41:41;;;;;;;249.97;224.70;;;3.00;99.90;;;;;;6257321;23;20427;-87
2021/01/01 00:44:09;;;;;;;275.10;245.97;;;3.00;99.90;;;;;;6245657;23;20431;-85
2021/01/01 00:46:44;;;;;;;258.73;233.10;;;3.00;99.90;;;;;;6257355;23;20737;-86
2021/01/01 00:49:11;;;;;;;279.83;249.20;;;3.00;99.90;;;;;;6257339;23;20409;-85
2021/01/01 00:51:45;;;;;;;281.23;251.83;;;3.00;99.90;;;;;;6257155;23;20884;-86
2021/01/01 00:54:16;;;;;;;300.27;267.70;;;3.00;99.90;;;;;;6246592;23;20449;-85
2021/01/01 00:56:43;;;;;;;336.40;268.20;;;2.90;99.90;;;;;;6257250;23;20415;-85
2021/01/01 00:59:14;;;;;;;309.07;263.37;;;2.90;99.90;;;;;;6255331;23;20435;-85
2021/01/01 01:01:41;;;;;;;342.30;262.93;;;2.90;99.90;;;;;;6246744;23;20489;-86
2021/01/01 01:04:08;;;;;;;340.40;285.90;;;3.00;99.90;;;;;;6257283;23;20403;-86
2021/01/01 01:06:34;;;;;;;303.40;263.97;;;2.90;99.90;;;;;;6247578;23;20403;-86
2021/01/01 01:09:01;;;;;;;289.00;259.10;;;2.80;99.90;;;;;;6257320;23;20407;-86
2021/01/01 01:11:32;;;;;;;291.03;255.27;;;2.80;99.90;;;;;;6257279;23;20414;-86
2021/01/01 01:14:02;;;;;;;298.23;266.23;;;2.90;99.90;;;;;;6255428;23;20502;-85
2021/01/01 01:16:32;;;;;;;309.00;272.40;;;2.90;99.90;;;;;;6257465;23;20404;-85
2021/01/01 01:19:01;;;;;;;284.97;256.70;;;2.90;99.90;;;;;;6256977;23;20732;-85
2021/01/01 01:21:34;;;;;;;245.00;222.77;;;2.90;99.90;;;;;;6256573;23;20566;-85
2021/01/01 01:24:04;;;;;;;281.23;255.03;;;2.80;99.90;;;;;;6256759;23;20518;-86
2021/01/01 01:26:35;;;;;;;234.83;216.77;;;2.80;99.90;;;;;;6246834;22;20435;-86
2021/01/01 01:29:12;;;;;;;257.40;234.53;;;2.80;99.90;;;;;;6255845;23;20422;-86
2021/01/01 01:31:39;;;;;;;257.10;235.00;;;2.80;99.90;;;;;;6256599;23;20419;-86
2021/01/01 01:34:17;;;;;;;287.43;258.20;;;2.80;99.90;;;;;;6256970;23;20408;-86
2021/01/01 01:36:50;;;;;;;286.27;258.80;;;2.80;99.90;;;;;;6247096;23;20788;-88
2021/01/01 01:39:18;;;;;;;286.30;257.97;;;2.70;99.90;;;;;;6256856;23;20443;-87
2021/01/01 01:41:44;;;;;;;274.20;250.73;;;2.80;99.90;;;;;;6256175;23;20492;-86
2021/01/01 01:44:11;;;;;;;219.40;203.60;;;2.70;99.90;;;;;;6245512;23;20403;-85
2021/01/01 01:46:50;;;;;;;243.30;224.00;;;2.60;99.90;;;;;;6246606;23;20482;-86
2021/01/01 01:49:21;;;;;;;230.37;213.00;;;2.70;99.90;;;;;;6256891;23;20725;-87
2021/01/01 01:51:50;;;;;;;211.67;196.07;;;2.70;99.90;;;;;;6246738;23;20400;-86
2021/01/01 01:54:21;;;;;;;180.30;168.10;;;2.70;99.90;;;;;;6246377;23;20410;-86
2021/01/01 01:56:49;;;;;;;209.27;192.33;;;2.60;99.90;;;;;;6256526;23;20490;-87
2021/01/01 01:59:21;;;;;;;203.40;187.50;;;2.70;99.90;;;;;;6255179;23;20757;-86
2021/01/01 02:01:51;;;;;;;194.57;177.90;;;2.60;99.90;;;;;;6246451;23;20439;-87
2021/01/01 02:04:18;;;;;;;183.47;169.07;;;2.60;99.90;;;;;;6256252;23;20399;-87
2021/01/01 02:06:45;;;;;;;202.00;185.70;;;2.50;99.90;;;;;;6256742;23;20937;-87
2021/01/01 02:09:14;;;;;;;189.17;173.97;;;2.60;99.90;;;;;;6256609;23;20411;-87
2021/01/01 02:11:43;;;;;;;191.53;175.83;;;2.50;99.90;;;;;;6245923;23;20402;-87
2021/01/01 02:14:10;;;;;;;196.27;180.33;;;2.60;99.90;;;;;;6255048;23;20918;-86
2021/01/01 02:16:37;;;;;;;198.27;182.27;;;2.40;99.90;;;;;;6246370;23;20402;-87
2021/01/01 02:19:08;;;;;;;200.17;183.97;;;2.50;99.90;;;;;;6246524;23;20396;-87
2021/01/01 02:21:39;;;;;;;206.57;189.10;;;2.40;99.90;;;;;;6256233;23;20446;-87
2021/01/01 02:24:09;;;;;;;216.03;197.20;;;2.30;99.90;;;;;;6255860;23;20419;-87
2021/01/01 02:26:36;;;;;;;225.23;206.93;;;2.30;99.90;;;;;;6255806;22;20436;-87
2021/01/01 02:29:03;;;;;;;222.37;204.97;;;2.40;99.90;;;;;;6245177;23;20399;-87
2021/01/01 02:31:30;;;;;;;217.93;200.03;;;2.30;99.90;;;;;;6255347;23;20422;-87
2021/01/01 02:34:01;;;;;;;217.70;200.60;;;2.40;99.90;;;;;;6246193;23;20407;-87
2021/01/01 02:36:28;;;;;;;236.47;216.87;;;2.30;99.90;;;;;;6256027;23;20473;-87
2021/01/01 02:38:54;;;;;;;227.27;208.17;;;2.30;99.90;;;;;;6255892;23;20898;-86
2021/01/01 02:41:21;;;;;;;240.93;221.57;;;2.30;99.90;;;;;;6255980;23;20450;-87
2021/01/01 02:43:48;;;;;;;240.87;219.70;;;2.30;99.90;;;;;;6246086;23;20449;-87
2021/01/01 02:46:14;;;;;;;250.20;228.23;;;2.20;99.90;;;;;;6245232;23;20399;-87
2021/01/01 02:48:41;;;;;;;253.00;229.50;;;2.30;99.90;;;;;;6256220;23;20407;-87
2021/01/01 02:51:07;;;;;;;246.20;225.60;;;2.30;99.90;;;;;;6256159;23;20465;-87
2021/01/01 02:53:33;;;;;;;260.10;237.87;;;2.30;99.90;;;;;;6256234;23;20407;-86
2021/01/01 02:56:02;;;;;;;262.63;237.37;;;2.20;99.90;;;;;;6245778;23;20545;-87
2021/01/01 02:58:29;;;;;;;259.13;237.20;;;2.20;99.90;;;;;;6256142;23;20431;-87
2021/01/01 03:00:56;;;;;;;270.23;244.90;;;2.30;99.90;;;;;;6254304;23;20465;-86
2021/01/01 03:03:26;;;;;;;271.37;248.87;;;2.30;99.90;;;;;;6246017;23;20831;-87
2021/01/01 03:05:52;;;;;;;274.97;249.47;;;2.30;99.90;;;;;;6255794;23;20411;-87
2021/01/01 03:08:20;;;;;;;271.50;248.77;;;2.30;99.90;;;;;;6256456;23;20497;-87
2021/01/01 03:10:47;;;;;;;279.97;253.80;;;2.30;99.90;;;;;;6255910;23;20726;-86
2021/01/01 03:13:15;;;;;;;278.67;254.47;;;2.40;99.90;;;;;;6255902;23;20407;-87
2021/01/01 03:15:42;;;;;;;274.73;252.67;;;2.30;99.90;;;;;;6244772;23;20404;-88
2021/01/01 03:18:12;;;;;;;271.47;249.20;;;2.30;99.90;;;;;;6259794;23;20415;-86
2021/01/01 03:20:38;;;;;;;286.10;261.07;;;2.30;99.90;;;;;;6255787;23;20434;-87
2021/01/01 03:23:06;;;;;;;290.53;263.90;;;2.40;99.90;;;;;;6245257;23;20767;-86
2021/01/01 03:25:32;;;;;;;274.13;253.10;;;2.30;99.90;;;;;;6255558;22;20438;-87
2021/01/01 03:27:59;;;;;;;287.93;264.70;;;2.30;99.90;;;;;;6255746;23;20411;-87
2021/01/01 03:30:25;;;;;;;289.87;265.80;;;2.30;99.90;;;;;;6254370;23;20422;-86
2021/01/01 03:32:53;;;;;;;301.70;276.57;;;2.30;99.90;;;;;;6255393;23;20483;-87
2021/01/01 03:35:20;;;;;;;288.67;266.57;;;2.40;99.90;;;;;;6245864;23;20426;-86
2021/01/01 03:37:46;;;;;;;294.77;273.00;;;2.30;99.90;;;;;;6247971;23;20483;-88
2021/01/01 03:40:15;;;;;;;283.03;260.40;;;2.30;99.90;;;;;;6257916;23;20490;-87
2021/01/01 03:42:51;;;;;;;293.07;268.60;;;2.30;99.90;;;;;;6247245;23;20522;-87
2021/01/01 03:45:21;;;;;;;288.10;264.53;;;2.30;99.90;;;;;;6245387;23;20414;-86
2021/01/01 03:47:47;;;;;;;290.20;266.77;;;2.40;99.90;;;;;;6257980;23;20435;-89
2021/01/01 03:50:15;;;;;;;286.27;264.67;;;2.30;99.90;;;;;;6247364;23;20431;-88
2021/01/01 03:52:42;;;;;;;301.60;277.40;;;2.30;99.90;;;;;;6257701;23;20403;-87
2021/01/01 03:55:12;;;;;;;309.73;285.23;;;2.40;99.90;;;;;;6204329;23;20413;-86
2021/01/01 03:57:40;;;;;;;297.30;273.70;;;2.30;99.90;;;;;;6257967;23;20799;-88
2021/01/01 04:00:07;;;;;;;304.90;279.80;;;2.30;99.90;;;;;;6256215;23;20431;-87
2021/01/01 04:02:34;;;;;;;299.43;276.00;;;2.40;99.90;;;;;;6257104;23;20435;-86
2021/01/01 04:05:01;;;;;;;295.27;273.90;;;2.40;99.90;;;;;;6246654;23;20498;-85
2021/01/01 04:07:34;;;;;;;288.63;265.77;;;2.40;99.90;;;;;;6257625;23;20418;-85
2021/01/01 04:10:03;;;;;;;289.87;267.93;;;2.30;99.90;;;;;;6257576;23;20435;-78
2021/01/01 04:12:30;;;;;;;293.07;270.53;;;2.40;99.90;;;;;;6247412;23;20411;-83
2021/01/01 04:14:56;;;;;;;286.77;265.57;;;2.30;99.90;;;;;;6256401;23;20503;-83
2021/01/01 04:17:23;;;;;;;285.27;262.47;;;2.40;99.90;;;;;;6257554;23;20720;-82
2021/01/01 04:19:51;;;;;;;285.27;264.10;;;2.30;99.90;;;;;;6257645;23;20407;-84
2021/01/01 04:22:17;;;;;;;293.53;271.97;;;2.40;99.90;;;;;;6257020;23;20886;-85
2021/01/01 04:24:45;;;;;;;291.20;267.70;;;2.30;99.90;;;;;;6265014;22;20747;-83
2021/01/01 04:27:11;;;;;;;300.03;276.70;;;2.30;99.90;;;;;;6251045;23;20450;-84
2021/01/01 04:29:37;;;;;;;290.47;268.47;;;2.50;99.90;;;;;;6255745;23;20415;-84
2021/01/01 04:32:04;;;;;;;295.63;271.77;;;2.40;99.90;;;;;;6247265;23;20400;-83
2021/01/01 04:34:32;;;;;;;289.27;265.83;;;2.40;99.90;;;;;;6257063;23;20404;-84
2021/01/01 04:36:58;;;;;;;283.83;263.30;;;2.50;99.90;;;;;;6247563;23;20495;-86
2021/01/01 04:39:25;;;;;;;283.67;260.93;;;2.50;99.90;;;;;;6257119;23;20416;-85
2021/01/01 04:41:55;;;;;;;298.70;274.57;;;2.50;99.90;;;;;;6257199;23;20481;-86
2021/01/01 04:44:22;;;;;;;289.07;265.83;;;2.50;99.90;;;;;;6256093;23;20450;-86
2021/01/01 04:46:49;;;;;;;278.03;255.20;;;2.50;99.90;;;;;;6247064;23;20411;-86
2021/01/01 04:49:16;;;;;;;294.03;269.13;;;2.50;99.90;;;;;;6256536;23;20411;-86
2021/01/01 04:51:46;;;;;;;286.53;265.07;;;2.40;99.90;;;;;;6247267;23;20408;-88
2021/01/01 04:54:12;;;;;;;292.53;267.60;;;2.40;99.90;;;;;;6257315;23;20498;-87
2021/01/01 04:56:46;;;;;;;287.13;264.30;;;2.50;99.90;;;;;;6256947;23;20931;-87
2021/01/01 04:59:16;;;;;;;292.17;267.33;;;2.50;99.90;;;;;;6244902;23;20447;-88
2021/01/01 05:01:45;;;;;;;294.03;270.33;;;2.50;99.90;;;;;;6246580;23;20917;-86
2021/01/01 05:04:13;;;;;;;297.10;271.20;;;2.50;99.90;;;;;;6256877;23;20411;-87
2021/01/01 05:06:44;;;;;;;299.00;273.37;;;2.50;99.90;;;;;;6256935;23;20871;-87
2021/01/01 05:09:12;;;;;;;273.33;250.30;;;2.50;99.90;;;;;;6257314;23;20403;-87
2021/01/01 05:11:38;;;;;;;273.57;251.17;;;2.50;99.90;;;;;;6256978;23;20415;-86
2021/01/01 05:14:10;;;;;;;273.77;249.57;;;2.50;99.90;;;;;;6245690;23;20423;-86
2021/01/01 05:16:52;;;;;;;278.07;255.67;;;2.50;99.90;;;;;;6260460;23;20404;-87
2021/01/01 05:19:24;;;;;;;274.83;252.83;;;2.50;99.90;;;;;;6246677;23;20395;-84
2021/01/01 05:22:04;;;;;;;283.67;258.50;;;2.40;99.90;;;;;;6246449;23;20505;-83
2021/01/01 05:24:37;;;;;;;273.17;251.67;;;2.40;99.90;;;;;;6256750;22;20478;-82
2021/01/01 05:27:10;;;;;;;268.90;244.83;;;2.40;99.90;;;;;;6256820;23;20406;-83
2021/01/01 05:29:43;;;;;;;273.50;250.63;;;2.40;99.90;;;;;;6245291;23;20453;-88
2021/01/01 05:32:10;;;;;;;288.10;262.37;;;2.40;99.90;;;;;;6246725;23;20765;-86
2021/01/01 05:34:44;;;;;;;275.37;251.90;;;2.30;99.90;;;;;;6246812;23;20479;-86
2021/01/01 05:37:11;;;;;;;277.07;252.80;;;2.30;99.90;;;;;;6257019;23;20403;-85
2021/01/01 05:39:37;;;;;;;274.90;250.80;;;2.30;99.90;;;;;;6246476;23;20400;-86
2021/01/01 05:42:04;;;;;;;270.37;247.07;;;2.30;99.90;;;;;;6257572;23;20419;-92
2021/01/01 05:44:33;;;;;;;274.50;252.40;;;2.30;99.90;;;;;;6259080;23;20494;-86
2021/01/01 05:47:10;;;;;;;278.20;254.83;;;2.30;99.90;;;;;;6246728;23;20407;-86
2021/01/01 05:49:54;;;;;;;269.90;247.20;;;2.30;99.90;;;;;;6246277;23;20403;-87
2021/01/01 05:52:27;;;;;;;267.07;243.83;;;2.30;99.90;;;;;;6256216;23;20565;-87
2021/01/01 05:55:09;;;;;;;260.20;236.67;;;2.20;99.90;;;;;;6256617;23;20407;-86
2021/01/01 05:57:53;;;;;;;260.40;238.30;;;2.10;99.90;;;;;;6246390;23;20395;-86
2021/01/01 06:00:21;;;;;;;269.87;246.50;;;2.20;99.90;;;;;;6254516;23;20441;-87
2021/01/01 06:02:48;;;;;;;273.87;250.60;;;2.20;99.90;;;;;;6245976;23;20485;-86
2021/01/01 06:05:16;;;;;;;278.43;255.40;;;2.10;99.90;;;;;;6246065;23;20930;-87
2021/01/01 06:07:42;;;;;;;276.37;251.23;;;2.20;99.90;;;;;;6256765;23;20422;-86
2021/01/01 06:10:12;;;;;;;273.53;247.97;;;2.10;99.90;;;;;;6246337;23;20792;-85
2021/01/01 06:12:40;;;;;;;282.23;258.07;;;2.10;99.90;;;;;;6256176;23;20431;-87
2021/01/01 06:15:08;;;;;;;287.70;261.95;;;2.00;99.90;;;;;;6254663;23;20411;-87
2021/01/01 06:17:49;;;;;;;288.87;262.10;;;1.90;99.90;;;;;;6245940;23;20590;-86
2021/01/01 06:20:37;;;;;;;284.97;259.40;;;1.90;99.90;;;;;;6256126;23;20727;-86
2021/01/01 06:23:05;;;;;;;288.37;262.80;;;2.00;99.90;;;;;;6245840;23;20949;-86
2021/01/01 06:25:35;;;;;;;303.37;274.87;;;1.90;99.90;;;;;;6246038;22;20427;-86
2021/01/01 06:28:04;;;;;;;301.07;273.40;;;1.90;99.90;;;;;;6246063;23;20400;-88
2021/01/01 06:30:31;;;;;;;291.83;265.63;;;1.90;99.90;;;;;;6254955;23;20729;-87
2021/01/01 06:32:58;;;;;;;292.97;266.37;;;1.80;99.90;;;;;;6256458;23;20404;-85
2021/01/01 06:35:32;;;;;;;284.33;257.40;;;1.90;99.90;;;;;;6255834;23;20411;-86
2021/01/01 06:37:59;;;;;;;297.67;270.17;;;1.80;99.90;;;;;;6246127;23;20899;-86
2021/01/01 06:40:39;;;;;;;294.10;265.87;;;1.80;99.90;;;;;;6246016;23;20433;-85
2021/01/01 06:43:10;;;;;;;289.13;260.30;;;1.80;99.90;;;;;;6255914;23;20426;-85
2021/01/01 06:45:42;;;;;;;279.77;252.77;;;1.70;99.90;;;;;;6176149;23;20403;-83
2021/01/01 06:48:11;;;;;;;282.27;256.27;;;1.60;99.90;;;;;;6247880;23;20754;-87
2021/01/01 06:50:39;;;;;;;298.42;271.60;;;1.70;99.90;;;;;;6245480;23;20478;-85
2021/01/01 06:53:12;;;;;;;301.13;273.67;;;1.70;99.90;;;;;;6255841;23;20259;-85
2021/01/01 06:55:42;;;;;;;292.07;266.17;;;1.70;99.90;;;;;;6245247;23;20403;-83
2021/01/01 06:58:27;;;;;;;295.83;268.53;;;1.70;99.90;;;;;;6255757;23;20411;-82
2021/01/01 07:00:57;;;;;;;296.50;268.70;;;1.70;99.90;;;;;;6254646;23;20490;-80
2021/01/01 07:03:38;;;;;;;308.73;280.97;;;1.60;99.90;;;;;;6245847;23;20430;-82
2021/01/01 07:06:38;;;;;;;310.60;281.63;;;1.70;99.90;;;;;;6255741;23;20414;-84
2021/01/01 07:09:07;;;;;;;314.53;286.77;;;1.60;99.90;;;;;;6245511;23;20423;-84
2021/01/01 07:11:41;;;;;;;315.03;284.83;;;1.60;99.90;;;;;;6255306;23;20491;-84
2021/01/01 07:14:13;;;;;;;308.73;281.37;;;1.60;99.90;;;;;;6254247;23;20411;-84
2021/01/01 07:16:44;;;;;;;320.97;290.10;;;1.60;99.90;;;;;;6256199;23;20403;-82
2021/01/01 07:19:13;;;;;;;325.40;297.10;;;1.50;99.90;;;;;;6245310;23;20395;-82
2021/01/01 07:21:43;;;;;;;320.67;287.73;;;1.50;99.90;;;;;;6245665;23;20469;-83
2021/01/01 07:24:12;;;;;;;326.93;292.03;;;1.40;99.90;;;;;;6245313;22;20455;-84
2021/01/01 07:26:40;;;;;;;328.77;293.80;;;1.40;99.90;;;;;;6254978;23;20412;-78
2021/01/01 07:29:07;;;;;;;340.70;305.53;;;1.30;99.90;;;;;;6244559;23;20408;-84
2021/01/01 07:31:34;;;;;;;341.77;306.87;;;1.30;99.90;;;;;;6255809;23;20434;-82
2021/01/01 07:34:11;;;;;;;352.63;317.20;;;1.40;99.90;;;;;;6245565;23;20403;-82
2021/01/01 07:36:38;;;;;;;338.20;303.23;;;1.40;99.90;;;;;;6255698;23;20477;-81
2021/01/01 07:39:07;;;;;;;346.37;310.27;;;1.30;99.90;;;;;;6256014;23;20902;-84
2021/01/01 07:41:34;;;;;;;346.57;311.17;;;1.40;99.90;;;;;;6245284;23;20423;-83
2021/01/01 07:44:01;;;;;;;353.10;316.60;;;1.40;99.90;;;;;;6243951;23;20519;-84
2021/01/01 07:46:30;;;;;;;352.53;316.97;;;1.50;99.90;;;;;;6255395;23;20407;-84
2021/01/01 07:48:56;;;;;;;354.33;315.63;;;1.40;99.90;;;;;;6255153;23;21044;-84
2021/01/01 07:51:23;;;;;;;347.10;308.67;;;1.40;99.90;;;;;;6245045;23;20399;-84
2021/01/01 07:53:49;;;;;;;341.23;306.07;;;1.20;99.90;;;;;;6255738;23;20407;-84
2021/01/01 07:56:15;;;;;;;354.13;319.07;;;1.30;99.90;;;;;;6245519;23;20407;-83
2021/01/01 07:58:47;;;;;;;341.77;306.30;;;1.30;99.90;;;;;;6254964;23;20443;-83
2021/01/01 08:01:14;;;;;;;344.03;309.50;;;1.20;99.90;;;;;;6254360;23;20443;-83
2021/01/01 08:03:40;;;;;;;338.47;305.07;;;1.10;99.90;;;;;;6255240;23;20481;-83
2021/01/01 08:06:09;;;;;;;350.60;313.60;;;1.10;99.90;;;;;;6250039;23;20879;-82
2021/01/01 08:08:36;;;;;;;339.73;306.17;;;1.00;99.90;;;;;;6254472;23;20435;-82
2021/01/01 08:11:05;;;;;;;365.47;325.87;;;1.10;99.90;;;;;;6254399;23;20422;-83
2021/01/01 08:13:47;;;;;;;359.37;322.37;;;1.20;99.90;;;;;;6254170;23;20408;-81
2021/01/01 08:16:16;;;;;;;352.07;313.87;;;1.20;99.90;;;;;;6242914;23;20874;-81
2021/01/01 08:18:43;;;;;;;360.60;321.47;;;1.20;99.90;;;;;;6244481;23;20399;-81
2021/01/01 08:21:11;;;;;;;356.97;319.23;;;1.30;99.90;;;;;;6254419;23;20399;-81
2021/01/01 08:23:50;;;;;;;373.17;321.97;;;1.40;99.90;;;;;;6246088;22;20530;-81
2021/01/01 08:26:48;;;;;;;364.13;326.33;;;1.30;99.90;;;;;;6246513;23;20454;-83
2021/01/01 08:29:48;;;;;;;350.60;303.10;;;1.30;99.90;;;;;;6255061;22;20441;-81
2021/01/01 08:35:48;;;;;;;357.53;317.97;;;1.40;99.90;;;;;;6247785;23;20518;-80
2021/01/01 08:38:21;;;;;;;341.43;304.77;;;1.60;99.90;;;;;;6257006;23;20406;-77
2021/01/01 08:44:16;;;;;;;;;;;;;;;;;;;;;
2021/01/01 08:47:02;;;;;;;358.83;324.33;;;2.10;99.90;;;;;;6200843;23;20176;-81
2021/01/01 08:49:51;;;;;;;;;;;;;;;;;;;;;
2021/01/01 08:52:29;;;;;;;344.57;309.90;;;2.30;99.90;;;;;;6255242;23;20396;-81
2021/01/01 08:55:11;;;;;;;337.53;304.33;;;2.50;99.90;;;;;;6247309;23;20913;-82
2021/01/01 08:57:39;;;;;;;328.90;296.63;;;2.50;99.90;;;;;;6256974;23;20407;-82
2021/01/01 09:06:29;;;;;;;297.27;268.83;;;2.80;99.90;;;;;;6240231;23;20435;-82
2021/01/01 09:15:37;;;;;;;;;;;;;;;;;;;;;
2021/01/01 09:18:20;;;;;;;;;;;;;;;;;;;;;
2021/01/01 09:21:17;;;;;;;224.73;203.00;;;3.30;99.90;;;;;;6239799;23;20409;-82
2021/01/01 09:24:15;;;;;;;221.03;201.03;;;3.30;99.90;;;;;;6256707;23;20985;-82
2021/01/01 09:26:43;;;;;;;195.10;176.63;;;3.40;99.90;;;;;;6207599;23;20922;-82
2021/01/01 09:29:38;;;;;;;195.63;176.53;;;3.50;99.90;;;;;;6255037;22;20431;-82
2021/01/01 09:32:20;;;;;;;146.30;131.63;;;3.50;99.90;;;;;;6244889;23;20407;-82
2021/01/01 09:34:56;;;;;;;151.53;135.90;;;3.60;99.90;;;;;;6246469;23;20396;-82
2021/01/01 09:40:41;;;;;;;115.13;94.23;;;3.80;99.90;;;;;;6243981;23;20788;-82
2021/01/01 09:43:10;;;;;;;112.57;73.90;;;3.90;99.90;;;;;;6257142;23;20427;-82
2021/01/01 09:45:42;;;;;;;101.33;68.43;;;3.90;99.90;;;;;;6238559;23;20461;-81
2021/01/01 09:48:19;;;;;;;101.87;64.80;;;4.00;99.90;;;;;;6255320;23;20442;-83
2021/01/01 09:50:55;;;;;;;99.17;59.80;;;4.00;99.90;;;;;;6255643;23;21013;-82
2021/01/01 09:53:35;;;;;;;110.23;69.20;;;4.30;99.90;;;;;;6244206;23;20399;-82
2021/01/01 09:56:07;;;;;;;101.73;63.03;;;4.20;99.90;;;;;;6201950;23;20403;-81
2021/01/01 09:58:34;;;;;;;92.83;63.93;;;4.30;99.90;;;;;;6255095;23;20399;-81
2021/01/01 10:01:09;;;;;;;92.73;59.50;;;4.50;99.90;;;;;;6252767;23;21220;-81
2021/01/01 10:03:39;;;;;;;104.97;62.80;;;4.40;99.90;;;;;;6255197;23;20446;-81
2021/01/01 10:06:07;;;;;;;94.50;63.33;;;4.60;99.90;;;;;;6254855;23;20435;-81
2021/01/01 10:08:36;;;;;;;81.63;50.53;;;4.70;99.90;;;;;;6254492;23;20418;-81
2021/01/01 10:11:18;;;;;;;;;;;;;;;;;;;;;
2021/01/01 10:13:44;;;;;;;85.30;47.53;;;4.80;99.90;;;;;;6246069;23;20403;-81
2021/01/01 10:16:13;;;;;;;86.90;44.13;;;4.80;99.90;;;;;;6243704;23;20399;-81
2021/01/01 10:18:40;;;;;;;77.57;47.93;;;4.80;99.90;;;;;;6245277;23;20404;-82
2021/01/01 10:21:13;;;;;;;77.57;43.60;;;4.90;99.90;;;;;;6254728;23;20407;-81
2021/01/01 10:23:48;;;;;;;79.57;46.00;;;5.10;99.90;;;;;;6240986;22;20915;-81
2021/01/01 10:26:26;;;;;;;76.43;41.53;;;5.20;99.90;;;;;;6255255;23;20399;-81
2021/01/01 10:28:56;;;;;;;77.23;43.43;;;5.50;99.90;;;;;;6244120;23;20410;-81
2021/01/01 10:31:35;;;;;;;72.27;43.30;;;5.50;99.90;;;;;;6243656;23;20518;-81
2021/01/01 10:34:10;;;;;;;71.67;41.80;;;5.60;99.90;;;;;;6243595;23;20399;-81
2021/01/01 10:37:02;;;;;;;;;;;;;;;;;;;;;
2021/01/01 10:39:36;;;;;;;71.37;39.63;;;5.80;97.20;;;;;;6248343;23;20412;-81
2021/01/01 10:42:10;;;;;;;69.00;40.30;;;5.80;96.00;;;;;;6243771;23;20882;-81
2021/01/01 10:44:40;;;;;;;68.17;39.47;;;5.80;94.90;;;;;;6252429;23;20402;-81
2021/01/01 10:47:12;;;;;;;63.80;36.87;;;5.80;93.10;;;;;;6253860;23;20435;-81
2021/01/01 10:49:46;;;;;;;63.03;36.40;;;5.80;93.40;;;;;;6243921;23;20474;-81
2021/01/01 10:52:25;;;;;;;66.03;39.47;;;5.80;92.70;;;;;;6253791;23;20417;-82
2021/01/01 10:55:10;;;;;;;;;;;;;;;;;;;;;
2021/01/01 10:57:39;;;;;;;72.37;39.17;;;5.70;94.60;;;;;;6236975;23;20796;-82
2021/01/01 11:02:59;;;;;;;58.43;34.40;;;5.70;92.50;;;;;;6159834;23;20442;-82
2021/01/01 11:06:19;;;;;;;59.23;33.93;;;5.50;92.10;;;;;;6226889;23;20849;-81
2021/01/01 11:09:00;;;;;;;60.83;34.63;;;5.60;91.90;;;;;;6046814;23;20420;-82
2021/01/01 11:11:30;;;;;;;56.77;33.40;;;5.60;91.20;;;;;;6103150;23;20411;-82
2021/01/01 11:14:23;;;;;;;58.53;35.57;;;5.70;91.90;;;;;;6155900;23;20426;-82
2021/01/01 12:27:56;;;;;;;34.80;21.70;;;6.70;45.10;;;;;;6045547;23;20418;-83
2021/01/01 12:34:21;;;;;;;39.33;22.90;;;6.70;45.40;;;;;;6016130;23;21060;-83
2021/01/01 12:37:18;;;;;;;35.33;20.93;;;6.80;45.60;;;;;;6023740;23;20801;-83
2021/01/01 12:43:25;;;;;;;;;;;;;;;;;;;;;
2021/01/01 12:46:47;;;;;;;;;;;;;;;;;;;;;
2021/01/01 12:52:44;;;;;;;37.60;24.43;;;6.80;45.60;;;;;;5992104;23;20419;-83
2021/01/01 12:59:04;;;;;;;40.50;24.63;;;6.70;42.00;;;;;;6042085;23;20418;-83
2021/01/01 13:01:55;;;;;;;46.20;26.43;;;6.60;41.90;;;;;;6253534;23;20481;-83
2021/01/01 13:05:31;;;;;;;;;;;;;;;;;;;;;
2021/01/01 13:08:19;;;;;;;34.40;23.23;;;6.60;39.40;;;;;;6013079;23;20423;-83
2021/01/01 13:14:57;;;;;;;;;;;;;;;;;;;;;
2021/01/01 13:17:57;;;;;;;37.80;23.70;;;6.50;41.80;;;;;;5963752;24;20428;-83
2021/01/01 13:46:22;;;;;;;39.80;24.10;;;5.90;45.40;;;;;;6060769;22;20783;-82
2021/01/01 13:49:48;;;;;;;;;;;;;;;;;;;;;
2021/01/01 13:53:01;;;;;;;39.30;25.03;;;6.00;48.10;;;;;;6175146;23;20408;-83
2021/01/01 13:55:56;;;;;;;43.33;26.37;;;5.90;50.00;;;;;;6075438;23;20745;-83
2021/01/01 14:02:18;;;;;;;;;;;;;;;;;;;;;
2021/01/01 14:05:16;;;;;;;37.13;24.47;;;5.70;51.40;;;;;;5833195;23;20455;-83
2021/01/01 14:18:39;;;;;;;;;;;;;;;;;;;;;
2021/01/01 14:21:51;;;;;;;;;;;;;;;;;;;;;
2021/01/01 14:49:28;;;;;;;;;;;;;;;;;;;;;
2021/01/01 15:24:35;;;;;;;;;;;;;;;;;;;;;
2021/01/01 15:30:42;;;;;;;;;;;;;;;;;;;;;
2021/01/01 15:33:42;;;;;;;67.93;58.90;;;2.50;99.90;;;;;;5966527;24;20411;-82
2021/01/01 15:36:19;;;;;;;69.50;62.80;;;2.50;99.90;;;;;;6059448;23;20417;-82
2021/01/01 15:49:42;;;;;;;82.20;68.83;;;2.10;99.90;;;;;;5888422;24;20459;-83
2021/01/01 17:28:05;;;;;;;141.27;129.20;;;1.40;99.90;;;;;;6263187;22;20458;-84
2021/01/01 17:57:32;;;;;;;118.87;109.27;;;1.50;99.90;;;;;;6042107;23;20420;-85
2021/01/01 18:00:26;;;;;;;116.83;106.47;;;1.50;99.90;;;;;;5999217;23;20416;-84
2021/01/01 19:36:35;;;;;;;;;;;;;;;;;;;;;
